Time;durP1;ratioP1;P1;durP2;ratioP2;P2;SDS_P1;SDS_P2;PMS_P1;PMS_P2;Temp;Humidity;BMP_temperature;BMP_pressure;BME280_temperature;BME280_humidity;BME280_pressure;Samples;Min_cycle;Max_cycle;Signal;HPM_P1;HPM_P2
2021/08/29 00:00:24;;;;;;;7.90;4.70;;;410.50;2252.80;;;;;;5015534;28;20390;-79
2021/08/29 00:02:50;;;;;;;5.93;3.90;;;410.50;2252.80;;;;;;5033778;28;20021;-75
2021/08/29 00:05:15;;;;;;;5.03;3.60;;;410.50;2252.80;;;;;;5033922;28;20438;-79
2021/08/29 00:07:41;;;;;;;4.25;3.67;;;410.40;2252.80;;;;;;5033412;28;20133;-78
2021/08/29 00:10:08;;;;;;;5.85;4.07;;;410.40;2252.80;;;;;;5033908;28;20022;-79
2021/08/29 00:12:33;;;;;;;4.90;4.38;;;410.40;2252.80;;;;;;5033794;28;20403;-79
2021/08/29 00:14:59;;;;;;;6.40;4.15;;;410.40;2252.80;;;;;;5033723;28;20057;-78
2021/08/29 00:17:25;;;;;;;4.30;3.90;;;410.40;2252.80;;;;;;5037568;28;20033;-78
2021/08/29 00:19:51;;;;;;;5.65;4.30;;;410.40;2278.40;;;;;;5037516;28;20037;-78
2021/08/29 00:22:17;;;;;;;8.45;4.35;;;410.40;2278.40;;;;;;5037372;28;20022;-79
2021/08/29 00:24:43;;;;;;;6.55;4.70;;;410.50;2278.40;;;;;;5037528;28;20075;-77
2021/08/29 00:27:09;;;;;;;9.10;5.07;;;410.40;2278.40;;;;;;5019534;28;20103;-79
2021/08/29 00:29:35;;;;;;;8.07;4.80;;;410.50;2278.40;;;;;;5037269;28;20032;-78
2021/08/29 00:32:00;;;;;;;8.38;4.95;;;410.50;2278.40;;;;;;5037487;28;20032;-78
2021/08/29 00:34:26;;;;;;;6.93;4.90;;;410.50;2278.40;;;;;;5037386;28;20463;-79
2021/08/29 00:36:52;;;;;;;6.47;4.97;;;435.20;2278.40;;;;;;5036340;28;20390;-78
2021/08/29 00:39:18;;;;;;;9.40;5.57;;;410.50;2278.40;;;;;;5037076;28;20041;-78
2021/08/29 00:41:45;;;;;;;6.60;4.75;;;410.50;2278.40;;;;;;5036987;28;20033;-79
2021/08/29 00:44:17;;;;;;;10.57;6.43;;;410.50;2278.40;;;;;;5037077;28;20029;-77
2021/08/29 00:46:43;;;;;;;8.07;5.32;;;410.50;2278.40;;;;;;5036544;28;20025;-79
2021/08/29 00:49:18;;;;;;;8.05;5.13;;;435.20;2278.40;;;;;;5018809;28;20510;-78
2021/08/29 00:51:54;;;;;;;10.75;5.30;;;435.20;2278.40;;;;;;5036819;28;20051;-78
2021/08/29 00:54:22;;;;;;;8.30;5.57;;;435.20;2278.40;;;;;;5036743;28;20108;-79
2021/08/29 00:56:50;;;;;;;12.55;5.45;;;435.20;2278.40;;;;;;5036680;28;20036;-80
2021/08/29 00:59:16;;;;;;;6.53;4.60;;;435.20;2278.40;;;;;;5036613;28;20394;-78
2021/08/29 01:01:46;;;;;;;7.82;5.22;;;435.20;2252.80;;;;;;5036224;28;20025;-79
2021/08/29 01:04:21;;;;;;;5.05;4.30;;;435.20;2252.80;;;;;;5036618;28;20049;-79
2021/08/29 01:06:56;;;;;;;7.05;3.92;;;435.20;2252.80;;;;;;5036385;28;20045;-79
2021/08/29 01:09:22;;;;;;;5.50;4.15;;;435.20;2227.20;;;;;;5036728;28;20038;-78
2021/08/29 01:11:52;;;;;;;5.35;3.80;;;435.20;2227.20;;;;;;5035586;28;20029;-79
2021/08/29 01:14:24;;;;;;;4.05;3.53;;;435.20;2227.20;;;;;;5036367;28;20029;-79
2021/08/29 01:16:53;;;;;;;4.03;3.50;;;435.30;2227.20;;;;;;5017637;28;20084;-78
2021/08/29 01:19:29;;;;;;;3.55;3.25;;;435.20;2227.20;;;;;;5036336;28;20061;-78
2021/08/29 01:21:55;;;;;;;3.55;3.25;;;435.20;2201.60;;;;;;5035535;28;20030;-77
2021/08/29 01:24:24;;;;;;;5.25;3.55;;;435.20;2227.20;;;;;;5036496;28;20063;-78
2021/08/29 01:27:17;;;;;;;4.28;3.63;;;435.20;2227.20;;;;;;5035407;28;20037;-78
2021/08/29 01:29:43;;;;;;;5.93;3.88;;;435.20;2227.20;;;;;;5036247;28;20157;-78
2021/08/29 01:32:09;;;;;;;4.38;3.50;;;410.50;2227.20;;;;;;5035989;28;20471;-78
2021/08/29 01:34:36;;;;;;;5.78;4.07;;;410.50;2227.20;;;;;;5035762;28;20498;-78
2021/08/29 01:37:02;;;;;;;3.80;3.50;;;410.50;2227.20;;;;;;5036094;28;20371;-75
2021/08/29 01:39:29;;;;;;;4.55;3.88;;;410.50;2227.20;;;;;;5035513;28;20120;-78
2021/08/29 01:41:55;;;;;;;8.65;3.58;;;410.50;2227.20;;;;;;5035608;28;20030;-72
2021/08/29 01:44:22;;;;;;;5.13;4.03;;;435.20;2227.20;;;;;;5035843;28;20406;-78
2021/08/29 01:46:49;;;;;;;4.63;3.95;;;435.20;2227.20;;;;;;5035849;28;20030;-79
2021/08/29 01:49:16;;;;;;;4.72;4.22;;;435.20;2227.20;;;;;;5035444;28;20030;-78
2021/08/29 01:51:42;;;;;;;4.22;3.83;;;435.20;2227.20;;;;;;5036185;28;20033;-78
2021/08/29 01:54:08;;;;;;;5.25;4.35;;;435.20;2227.20;;;;;;5035680;28;20026;-78
2021/08/29 01:57:02;;;;;;;4.45;4.05;;;435.20;2227.20;;;;;;5034916;28;20116;-78
2021/08/29 01:59:28;;;;;;;4.80;4.07;;;435.20;2227.20;;;;;;5035583;28;20061;-75
2021/08/29 02:01:54;;;;;;;4.78;4.28;;;435.20;2227.20;;;;;;5035472;28;20101;-78
2021/08/29 02:04:22;;;;;;;7.53;5.03;;;435.20;2227.20;;;;;;5035426;28;20044;-78
2021/08/29 02:06:54;;;;;;;6.50;5.18;;;435.20;2227.20;;;;;;5035193;28;20168;-72
2021/08/29 02:09:23;;;;;;;5.50;4.65;;;435.20;2227.20;;;;;;5035739;28;20066;-78
2021/08/29 02:11:52;;;;;;;6.20;4.88;;;410.50;2252.80;;;;;;5016516;28;20117;-78
2021/08/29 02:14:21;;;;;;;4.78;4.35;;;410.50;2252.80;;;;;;5035435;28;20029;-79
2021/08/29 02:16:49;;;;;;;5.15;4.65;;;410.50;2227.20;;;;;;5017111;28;20116;-79
2021/08/29 02:19:21;;;;;;;8.55;4.82;;;410.50;2227.20;;;;;;5035068;28;20061;-79
2021/08/29 02:21:48;;;;;;;5.00;4.60;;;410.50;2252.80;;;;;;5034951;28;20076;-74
2021/08/29 02:24:14;;;;;;;8.63;4.30;;;410.50;2252.80;;;;;;5017097;28;20125;-76
2021/08/29 02:26:40;;;;;;;12.70;5.00;;;410.50;2252.80;;;;;;5016445;28;20037;-79
2021/08/29 02:29:09;;;;;;;6.75;5.07;;;410.50;2252.80;;;;;;5017770;28;20044;-76
2021/08/29 02:31:35;;;;;;;6.32;4.75;;;435.20;2252.80;;;;;;5035004;28;20040;-78
2021/08/29 02:34:01;;;;;;;7.53;5.10;;;410.50;2252.80;;;;;;5035182;28;20444;-78
2021/08/29 02:36:28;;;;;;;5.55;4.60;;;435.20;2252.80;;;;;;5036310;28;20025;-78
2021/08/29 02:38:55;;;;;;;6.40;4.97;;;435.20;2252.80;;;;;;5034442;28;20096;-73
2021/08/29 02:41:22;;;;;;;8.43;5.05;;;435.20;2252.80;;;;;;5034779;28;20048;-78
2021/08/29 02:43:49;;;;;;;7.95;5.43;;;435.20;2252.80;;;;;;5034749;28;20475;-79
2021/08/29 02:46:15;;;;;;;6.75;4.93;;;435.20;2252.80;;;;;;5034806;28;20108;-78
2021/08/29 02:48:44;;;;;;;7.05;5.07;;;435.20;2252.80;;;;;;5034559;28;20482;-74
2021/08/29 02:51:14;;;;;;;7.53;4.75;;;435.20;2252.80;;;;;;5034857;28;20101;-79
2021/08/29 02:53:43;;;;;;;7.13;5.63;;;435.20;2252.80;;;;;;5034402;28;20025;-78
2021/08/29 02:56:10;;;;;;;6.50;5.40;;;410.50;2252.80;;;;;;5034176;28;20500;-77
2021/08/29 02:58:37;;;;;;;7.57;5.20;;;435.20;2252.80;;;;;;5034443;28;20056;-78
2021/08/29 03:01:03;;;;;;;10.10;6.05;;;435.20;2278.40;;;;;;5034155;28;20118;-78
2021/08/29 03:03:29;;;;;;;6.10;5.50;;;435.20;2278.40;;;;;;5034241;28;20025;-78
2021/08/29 03:05:55;;;;;;;9.15;6.20;;;435.20;2278.40;;;;;;5033960;28;20160;-78
2021/08/29 03:08:21;;;;;;;7.47;5.40;;;435.20;2252.80;;;;;;5032647;28;20034;-78
2021/08/29 03:10:48;;;;;;;7.47;5.47;;;435.20;2252.80;;;;;;5034276;28;20036;-78
2021/08/29 03:13:17;;;;;;;6.20;5.60;;;435.20;2278.40;;;;;;5033936;28;20649;-75
2021/08/29 03:15:44;;;;;;;6.25;5.55;;;435.20;2252.80;;;;;;5034217;28;20084;-78
2021/08/29 03:18:10;;;;;;;6.93;5.63;;;435.20;2278.40;;;;;;5033715;28;20483;-78
2021/08/29 03:20:36;;;;;;;6.35;5.72;;;435.20;2278.40;;;;;;5034638;28;20080;-78
2021/08/29 03:23:02;;;;;;;8.07;6.32;;;435.20;2252.80;;;;;;5034165;28;20026;-78
2021/08/29 03:25:28;;;;;;;10.25;5.60;;;435.20;2252.80;;;;;;5034234;28;20037;-75
2021/08/29 03:27:54;;;;;;;11.52;6.15;;;435.20;2278.40;;;;;;5034146;28;20030;-79
2021/08/29 03:30:20;;;;;;;6.70;5.95;;;435.20;2278.40;;;;;;5033247;28;20088;-78
2021/08/29 03:32:46;;;;;;;6.30;5.68;;;435.20;2252.80;;;;;;5034570;28;20422;-78
2021/08/29 03:35:13;;;;;;;8.40;6.05;;;435.20;2252.80;;;;;;5033431;28;20116;-79
2021/08/29 03:37:44;;;;;;;5.68;5.18;;;435.20;2252.80;;;;;;5033744;28;20498;-78
2021/08/29 03:40:11;;;;;;;8.27;5.68;;;435.20;2252.80;;;;;;5033996;28;20116;-78
2021/08/29 03:42:37;;;;;;;6.30;5.70;;;435.20;2252.80;;;;;;5033980;28;20029;-72
2021/08/29 03:45:05;;;;;;;12.13;5.95;;;435.20;2252.80;;;;;;5033127;28;20021;-79
2021/08/29 03:47:32;;;;;;;9.25;6.13;;;410.50;2252.80;;;;;;5033785;28;20551;-79
2021/08/29 03:49:58;;;;;;;6.97;5.65;;;435.20;2252.80;;;;;;5034038;28;20056;-78
2021/08/29 03:52:24;;;;;;;7.07;5.53;;;435.20;2252.80;;;;;;5038015;28;20059;-77
2021/08/29 03:54:50;;;;;;;7.90;6.30;;;435.20;2252.80;;;;;;5038118;28;20049;-79
2021/08/29 03:57:16;;;;;;;6.70;6.10;;;410.50;2252.80;;;;;;5038006;28;20083;-79
2021/08/29 03:59:42;;;;;;;6.25;5.53;;;410.50;2278.40;;;;;;5037819;28;20099;-79
2021/08/29 04:02:08;;;;;;;6.72;5.93;;;410.50;2278.40;;;;;;5037464;28;20130;-79
2021/08/29 04:04:35;;;;;;;11.23;6.78;;;410.50;2278.40;;;;;;5037398;28;20033;-78
2021/08/29 04:07:05;;;;;;;6.78;6.07;;;435.20;2252.80;;;;;;5037268;28;20045;-78
2021/08/29 04:09:32;;;;;;;7.50;6.10;;;410.50;2278.40;;;;;;5037826;28;20053;-79
2021/08/29 04:12:00;;;;;;;7.80;5.95;;;410.50;2278.40;;;;;;5037614;28;20022;-78
2021/08/29 04:14:27;;;;;;;6.97;6.13;;;410.50;2278.40;;;;;;5037434;28;20390;-78
2021/08/29 04:16:57;;;;;;;7.25;6.50;;;410.50;2252.80;;;;;;5037479;28;20455;-78
2021/08/29 04:19:24;;;;;;;7.10;6.40;;;410.50;2252.80;;;;;;5037773;28;20033;-78
2021/08/29 04:21:51;;;;;;;6.55;5.85;;;435.20;2252.80;;;;;;5037358;28;20018;-77
2021/08/29 04:24:17;;;;;;;7.55;6.30;;;410.50;2252.80;;;;;;5037482;28;20116;-78
2021/08/29 04:26:42;;;;;;;8.02;7.22;;;435.20;2278.40;;;;;;5037163;28;20101;-77
2021/08/29 04:29:08;;;;;;;8.70;6.53;;;410.50;2278.40;;;;;;5036858;28;20441;-78
2021/08/29 04:31:35;;;;;;;8.30;6.70;;;410.50;2278.40;;;;;;5036768;28;20474;-77
2021/08/29 04:34:03;;;;;;;7.90;6.93;;;410.50;2278.40;;;;;;5037486;28;20037;-72
2021/08/29 04:36:34;;;;;;;7.32;6.28;;;410.50;2278.40;;;;;;5036981;28;20045;-79
2021/08/29 04:39:01;;;;;;;8.57;6.65;;;410.50;2278.40;;;;;;5037115;28;20038;-64
2021/08/29 04:41:27;;;;;;;11.98;6.70;;;410.50;2278.40;;;;;;5036762;28;20036;-68
2021/08/29 04:43:53;;;;;;;8.57;6.25;;;435.20;2278.40;;;;;;5036781;28;20609;-66
2021/08/29 04:46:19;;;;;;;7.90;7.10;;;435.20;2278.40;;;;;;5036510;28;20025;-69
2021/08/29 04:48:44;;;;;;;7.15;6.10;;;435.20;2278.40;;;;;;5036951;28;20025;-64
2021/08/29 04:51:10;;;;;;;6.97;6.28;;;435.20;2278.40;;;;;;5036690;28;20029;-64
2021/08/29 04:53:36;;;;;;;7.15;6.25;;;435.20;2278.40;;;;;;5036421;28;20026;-64
2021/08/29 04:56:01;;;;;;;8.63;6.55;;;435.30;2278.40;;;;;;5036558;28;20026;-65
2021/08/29 04:58:27;;;;;;;7.18;6.45;;;435.30;2278.40;;;;;;5018699;28;20044;-64
2021/08/29 05:00:53;;;;;;;6.65;5.90;;;435.30;2252.80;;;;;;5036386;28;20536;-64
2021/08/29 05:03:18;;;;;;;11.27;6.40;;;435.30;2278.40;;;;;;5036434;28;20022;-64
2021/08/29 05:05:44;;;;;;;6.68;6.00;;;435.30;2252.80;;;;;;5018315;28;20025;-64
2021/08/29 05:08:10;;;;;;;6.82;6.15;;;435.30;2252.80;;;;;;5035873;28;20111;-69
2021/08/29 05:10:36;;;;;;;6.63;5.95;;;435.30;2278.40;;;;;;5036303;28;20104;-64
2021/08/29 05:13:01;;;;;;;7.05;5.90;;;435.30;2252.80;;;;;;5036254;28;20033;-64
2021/08/29 05:15:27;;;;;;;7.65;5.75;;;435.40;2252.80;;;;;;5035617;28;20032;-64
2021/08/29 05:17:53;;;;;;;7.85;5.97;;;435.40;2278.40;;;;;;5036030;28;20455;-68
2021/08/29 05:20:18;;;;;;;8.32;6.30;;;435.40;2252.80;;;;;;5036174;28;20097;-65
2021/08/29 05:22:44;;;;;;;6.15;5.55;;;435.40;2252.80;;;;;;5036035;28;20026;-65
2021/08/29 05:25:10;;;;;;;6.45;5.85;;;435.40;2252.80;;;;;;5036085;28;20524;-65
2021/08/29 05:27:36;;;;;;;9.65;6.80;;;435.40;2252.80;;;;;;5035985;28;20022;-65
2021/08/29 05:30:02;;;;;;;12.88;6.00;;;435.40;2252.80;;;;;;5035196;28;20455;-64
2021/08/29 05:32:28;;;;;;;6.15;5.55;;;435.40;2252.80;;;;;;5035296;28;20057;-65
2021/08/29 05:34:54;;;;;;;7.75;6.25;;;435.50;2252.80;;;;;;5017181;28;20466;-68
2021/08/29 05:37:19;;;;;;;7.93;5.82;;;435.50;2252.80;;;;;;5035795;28;20109;-64
2021/08/29 05:39:45;;;;;;;6.72;5.88;;;435.60;2252.80;;;;;;5035624;28;20061;-64
2021/08/29 05:42:11;;;;;;;6.25;5.65;;;435.60;2252.80;;;;;;5035354;28;20021;-64
2021/08/29 05:44:36;;;;;;;10.88;6.07;;;435.60;2252.80;;;;;;5035658;28;20045;-65
2021/08/29 05:47:02;;;;;;;10.77;6.07;;;435.60;2227.20;;;;;;5036369;28;20029;-69
2021/08/29 05:49:28;;;;;;;7.03;5.88;;;435.60;2252.80;;;;;;5017382;28;20037;-66
2021/08/29 05:51:53;;;;;;;6.90;5.93;;;435.60;2252.80;;;;;;5035101;28;20025;-64
2021/08/29 05:54:19;;;;;;;8.60;6.35;;;435.60;2252.80;;;;;;5035429;28;20077;-65
2021/08/29 05:56:45;;;;;;;8.02;5.82;;;435.60;2252.80;;;;;;5035187;28;20123;-64
2021/08/29 05:59:11;;;;;;;8.50;6.28;;;435.70;2227.20;;;;;;5035274;28;20168;-64
2021/08/29 06:01:36;;;;;;;8.00;5.90;;;435.70;2227.20;;;;;;5034790;28;20030;-65
2021/08/29 06:04:02;;;;;;;6.85;6.07;;;435.70;2227.20;;;;;;5035435;28;20021;-64
2021/08/29 06:06:28;;;;;;;6.78;5.90;;;435.70;2252.80;;;;;;5034925;28;20081;-64
2021/08/29 06:08:54;;;;;;;7.25;6.00;;;435.70;2227.20;;;;;;5035230;28;20107;-64
2021/08/29 06:11:19;;;;;;;10.30;6.55;;;435.70;2227.20;;;;;;5035300;28;20022;-64
2021/08/29 06:13:45;;;;;;;7.07;6.32;;;435.70;2227.20;;;;;;5034640;28;20527;-69
2021/08/29 06:16:11;;;;;;;7.03;6.32;;;435.70;2227.20;;;;;;5034815;28;20375;-64
2021/08/29 06:18:37;;;;;;;6.18;5.60;;;435.80;2227.20;;;;;;5016773;28;20049;-66
2021/08/29 06:21:04;;;;;;;5.82;5.22;;;435.80;2227.20;;;;;;5035012;28;20097;-73
2021/08/29 06:23:30;;;;;;;10.82;6.15;;;435.90;2227.20;;;;;;5017012;28;20040;-73
2021/08/29 06:25:55;;;;;;;8.55;6.25;;;435.90;2227.20;;;;;;5034816;28;20048;-67
2021/08/29 06:28:21;;;;;;;7.82;6.25;;;435.90;2227.20;;;;;;5034928;28;20041;-69
2021/08/29 06:30:47;;;;;;;7.07;6.32;;;435.90;2227.20;;;;;;5034456;28;20364;-64
2021/08/29 06:33:13;;;;;;;9.60;7.22;;;436.00;2227.20;;;;;;5017586;28;20021;-64
2021/08/29 06:35:38;;;;;;;8.65;6.97;;;436.00;2227.20;;;;;;5034445;28;20471;-64
2021/08/29 06:38:04;;;;;;;8.00;6.45;;;436.00;2227.20;;;;;;5034568;28;20108;-64
2021/08/29 06:40:30;;;;;;;7.82;6.85;;;436.00;2201.60;;;;;;5034763;28;20029;-66
2021/08/29 06:42:55;;;;;;;9.05;6.95;;;436.10;2227.20;;;;;;5034623;28;20025;-65
2021/08/29 06:45:22;;;;;;;8.75;6.72;;;460.80;2227.20;;;;;;5034276;28;20025;-68
2021/08/29 06:47:47;;;;;;;8.80;6.72;;;460.80;2227.20;;;;;;5034721;28;20463;-64
2021/08/29 06:50:13;;;;;;;7.45;6.20;;;460.90;2227.20;;;;;;5034211;28;20036;-64
2021/08/29 06:52:39;;;;;;;7.10;6.13;;;460.90;2227.20;;;;;;5016399;28;20120;-67
2021/08/29 06:55:05;;;;;;;9.63;6.22;;;460.90;2227.20;;;;;;5034520;28;20017;-68
2021/08/29 06:57:31;;;;;;;9.70;6.65;;;461.00;2227.20;;;;;;5034338;28;20120;-68
2021/08/29 06:59:56;;;;;;;9.18;6.60;;;461.10;2201.60;;;;;;5034153;28;20128;-64
2021/08/29 07:02:22;;;;;;;7.95;6.38;;;461.10;2201.60;;;;;;5034376;28;20021;-64
2021/08/29 07:04:49;;;;;;;7.55;6.40;;;461.10;2201.60;;;;;;5016627;28;20387;-64
2021/08/29 07:07:15;;;;;;;5.97;5.35;;;461.20;2176.00;;;;;;5033912;28;20052;-67
2021/08/29 07:09:42;;;;;;;7.03;6.20;;;461.20;2176.00;;;;;;5016113;28;20025;-64
2021/08/29 07:12:08;;;;;;;7.68;6.00;;;461.30;2176.00;;;;;;5033958;28;20042;-64
2021/08/29 07:14:34;;;;;;;8.63;6.55;;;461.30;2176.00;;;;;;5034028;28;20026;-64
2021/08/29 07:17:00;;;;;;;6.60;5.95;;;461.40;2176.00;;;;;;5034108;28;20025;-64
2021/08/29 07:19:26;;;;;;;8.27;5.93;;;461.50;2176.00;;;;;;5033705;28;20497;-64
2021/08/29 07:21:51;;;;;;;12.13;6.50;;;461.60;2176.00;;;;;;5034058;28;20068;-64
2021/08/29 07:24:17;;;;;;;10.05;6.60;;;461.60;2150.40;;;;;;5033869;28;20064;-64
2021/08/29 07:26:43;;;;;;;8.10;5.78;;;461.70;2124.80;;;;;;5032996;28;20121;-65
2021/08/29 07:29:09;;;;;;;6.68;5.78;;;486.40;2099.20;;;;;;5033786;28;20024;-64
2021/08/29 07:31:34;;;;;;;6.30;5.70;;;486.60;2099.20;;;;;;5033757;28;20025;-66
2021/08/29 07:34:00;;;;;;;8.18;5.63;;;486.80;2073.60;;;;;;5033614;28;20104;-64
2021/08/29 07:36:26;;;;;;;8.65;5.38;;;487.00;2022.40;;;;;;5033669;28;20021;-66
2021/08/29 07:38:52;;;;;;;5.28;4.47;;;487.30;1996.80;;;;;;5033109;28;20517;-68
2021/08/29 07:41:17;;;;;;;5.32;4.72;;;512.10;1971.20;;;;;;5033567;28;20026;-63
2021/08/29 07:43:43;;;;;;;6.53;5.40;;;512.30;1971.20;;;;;;5015715;28;20502;-65
2021/08/29 07:46:09;;;;;;;7.03;5.20;;;512.40;1971.20;;;;;;5033793;28;20025;-65
2021/08/29 07:48:35;;;;;;;6.53;5.00;;;512.60;1971.20;;;;;;5016251;28;20487;-64
2021/08/29 07:51:01;;;;;;;5.50;4.97;;;512.60;1945.60;;;;;;5033620;28;20041;-66
2021/08/29 07:53:27;;;;;;;6.95;5.22;;;512.80;1920.00;;;;;;5033621;28;20448;-65
2021/08/29 07:55:52;;;;;;;5.80;5.05;;;537.60;1945.60;;;;;;5033815;28;20383;-65
2021/08/29 07:58:18;;;;;;;5.68;5.07;;;537.80;1920.00;;;;;;5033690;28;20033;-64
2021/08/29 08:00:44;;;;;;;5.65;5.05;;;538.00;1945.60;;;;;;5033577;28;20049;-65
2021/08/29 08:03:10;;;;;;;5.50;4.78;;;538.10;1920.00;;;;;;5033465;28;20041;-67
2021/08/29 08:05:36;;;;;;;5.28;4.22;;;538.30;1868.80;;;;;;5033329;28;20415;-70
2021/08/29 08:08:02;;;;;;;13.98;4.53;;;538.40;1843.20;;;;;;5033446;28;20030;-69
2021/08/29 08:10:30;;;;;;;5.82;4.93;;;563.20;1868.80;;;;;;5016304;28;20037;-64
2021/08/29 08:12:56;;;;;;;5.13;4.63;;;563.30;1868.80;;;;;;5015415;28;20037;-64
2021/08/29 08:15:22;;;;;;;4.57;4.18;;;563.30;1817.60;;;;;;5033313;28;20036;-64
2021/08/29 08:17:48;;;;;;;4.85;4.35;;;563.40;1843.20;;;;;;5033675;28;20030;-69
2021/08/29 08:20:14;;;;;;;6.15;4.30;;;563.50;1817.60;;;;;;5033370;28;20120;-75
2021/08/29 08:22:40;;;;;;;5.40;4.15;;;563.50;1792.00;;;;;;5014530;28;20041;-64
2021/08/29 08:25:07;;;;;;;5.20;4.20;;;563.60;1792.00;;;;;;5033413;28;20153;-64
2021/08/29 08:27:33;;;;;;;5.43;4.93;;;563.60;1766.40;;;;;;5032944;28;20475;-70
2021/08/29 08:29:59;;;;;;;4.28;3.85;;;563.70;1766.40;;;;;;5033275;28;20120;-64
2021/08/29 08:32:24;;;;;;;6.00;4.18;;;563.80;1715.20;;;;;;5033289;28;20025;-71
2021/08/29 08:34:50;;;;;;;4.68;4.28;;;563.80;1740.80;;;;;;5032456;28;20038;-65
2021/08/29 08:37:16;;;;;;;4.72;4.25;;;563.90;1740.80;;;;;;5035052;28;20017;-68
2021/08/29 08:39:42;;;;;;;4.25;3.80;;;564.00;1715.20;;;;;;5036780;28;20071;-64
2021/08/29 08:42:08;;;;;;;4.18;3.50;;;588.80;1715.20;;;;;;5036901;28;20426;-64
2021/08/29 08:44:34;;;;;;;4.93;4.22;;;588.80;1715.20;;;;;;5037035;28;20108;-66
2021/08/29 08:47:05;;;;;;;6.28;4.35;;;589.00;1740.80;;;;;;5037469;28;20112;-72
2021/08/29 08:49:33;;;;;;;6.15;3.83;;;589.00;1715.20;;;;;;5036839;28;20022;-65
2021/08/29 08:52:02;;;;;;;7.80;4.30;;;589.00;1715.20;;;;;;5036693;28;20030;-75
2021/08/29 08:54:30;;;;;;;5.72;4.75;;;589.00;1689.60;;;;;;5036653;28;20032;-64
2021/08/29 08:56:57;;;;;;;5.13;4.10;;;589.10;1664.00;;;;;;5036594;28;20017;-64
2021/08/29 08:59:23;;;;;;;4.28;3.88;;;589.20;1664.00;;;;;;5035554;28;20041;-77
2021/08/29 09:01:49;;;;;;;4.85;4.35;;;589.20;1638.40;;;;;;5036325;28;20018;-65
2021/08/29 09:04:15;;;;;;;5.05;4.22;;;589.30;1638.40;;;;;;5036537;28;20036;-68
2021/08/29 09:06:42;;;;;;;6.10;4.20;;;589.40;1587.20;;;;;;5036195;28;20103;-78
2021/08/29 09:09:08;;;;;;;3.75;3.45;;;589.60;1587.20;;;;;;5035625;28;20033;-77
2021/08/29 09:11:35;;;;;;;6.20;3.67;;;589.60;1561.60;;;;;;5036383;28;20018;-65
2021/08/29 09:14:01;;;;;;;8.25;3.60;;;589.60;1561.60;;;;;;5036421;28;20018;-78
2021/08/29 09:16:29;;;;;;;6.20;4.13;;;589.60;1561.60;;;;;;5036352;28;20135;-64
2021/08/29 09:18:58;;;;;;;8.13;4.65;;;589.70;1612.80;;;;;;5036245;28;20415;-75
2021/08/29 09:21:29;;;;;;;32.17;5.93;;;589.70;1638.40;;;;;;5035937;28;20053;-64
2021/08/29 09:23:57;;;;;;;11.05;4.05;;;614.40;1638.40;;;;;;5035803;28;20037;-64
2021/08/29 09:26:24;;;;;;;5.38;3.28;;;614.40;1587.20;;;;;;5017744;28;20121;-65
2021/08/29 09:28:55;;;;;;;19.83;4.35;;;614.40;1561.60;;;;;;5036092;28;20550;-65
2021/08/29 09:31:21;;;;;;;32.25;5.00;;;614.40;1561.60;;;;;;5035941;28;20026;-66
2021/08/29 09:34:00;;;;;;;12.52;3.08;;;614.50;1484.80;;;;;;5036024;28;20029;-64
2021/08/29 09:36:33;;;;;;;8.20;3.05;;;614.60;1510.40;;;;;;5035646;28;20026;-65
2021/08/29 09:39:14;;;;;;;6.82;2.83;;;614.60;1536.00;;;;;;5035736;28;20486;-64
2021/08/29 09:41:41;;;;;;;3.20;2.80;;;614.70;1510.40;;;;;;5017933;28;20029;-64
2021/08/29 09:44:22;;;;;;;3.38;2.90;;;614.80;1536.00;;;;;;5035786;28;20375;-65
2021/08/29 09:47:00;;;;;;;4.13;3.00;;;614.80;1536.00;;;;;;5017903;28;20517;-66
2021/08/29 09:49:27;;;;;;;5.80;2.90;;;614.80;1536.00;;;;;;5034644;28;20128;-65
2021/08/29 09:51:54;;;;;;;2.72;2.45;;;614.90;1536.00;;;;;;5035775;28;20025;-65
2021/08/29 09:54:34;;;;;;;3.13;2.42;;;614.90;1536.00;;;;;;5035181;28;20438;-64
2021/08/29 09:57:05;;;;;;;3.22;2.40;;;614.90;1510.40;;;;;;5035335;28;20033;-67
2021/08/29 09:59:50;;;;;;;4.22;2.53;;;614.90;1510.40;;;;;;5035133;28;20033;-67
2021/08/29 10:02:29;;;;;;;6.93;2.75;;;615.00;1484.80;;;;;;5035364;28;20044;-64
2021/08/29 10:05:11;;;;;;;8.23;2.38;;;615.00;1459.20;;;;;;5035723;28;20088;-64
2021/08/29 10:07:37;;;;;;;6.20;2.33;;;615.00;1459.20;;;;;;5035040;28;20060;-64
2021/08/29 10:10:26;;;;;;;8.35;2.55;;;615.10;1433.60;;;;;;5035268;28;20045;-64
2021/08/29 10:12:52;;;;;;;8.82;2.60;;;615.30;1433.60;;;;;;5017312;28;20036;-65
2021/08/29 10:15:20;;;;;;;3.67;2.15;;;640.00;1433.60;;;;;;5035208;28;20418;-64
2021/08/29 10:17:47;;;;;;;5.03;1.90;;;640.10;1382.40;;;;;;5017329;28;20017;-64
2021/08/29 10:20:14;;;;;;;1.90;1.75;;;640.20;1382.40;;;;;;5035124;28;20364;-64
2021/08/29 10:22:40;;;;;;;2.00;1.85;;;640.30;1408.00;;;;;;5034758;28;20071;-64
2021/08/29 10:25:08;;;;;;;4.28;1.80;;;640.30;1382.40;;;;;;5034900;28;20387;-64
2021/08/29 10:27:38;;;;;;;3.20;2.03;;;640.50;1356.80;;;;;;5034789;28;20040;-64
2021/08/29 10:30:08;;;;;;;2.20;1.80;;;640.60;1356.80;;;;;;5034839;28;20459;-65
2021/08/29 10:32:35;;;;;;;2.30;1.80;;;640.70;1356.80;;;;;;5016992;28;20479;-65
2021/08/29 10:35:08;;;;;;;4.60;1.60;;;640.70;1408.00;;;;;;5034645;28;20029;-64
2021/08/29 10:37:38;;;;;;;1.95;1.73;;;640.70;1382.40;;;;;;5034431;28;20025;-64
2021/08/29 10:40:06;;;;;;;3.25;1.83;;;665.60;1408.00;;;;;;5016772;28;20091;-65
2021/08/29 10:42:36;;;;;;;3.05;1.60;;;665.80;1305.60;;;;;;5034788;28;20076;-65
2021/08/29 10:45:02;;;;;;;4.10;1.60;;;666.10;1254.40;;;;;;5034569;28;20423;-65
2021/08/29 10:47:30;;;;;;;1.55;1.45;;;666.40;1280.00;;;;;;5034461;28;20109;-65
2021/08/29 10:49:58;;;;;;;2.28;1.65;;;691.30;1254.40;;;;;;5034300;28;20076;-65
2021/08/29 10:52:30;;;;;;;2.03;1.45;;;691.50;1228.80;;;;;;5034459;28;20049;-65
2021/08/29 10:54:56;;;;;;;2.20;1.40;;;691.70;1177.60;;;;;;5034329;28;20028;-65
2021/08/29 10:57:38;;;;;;;1.48;1.35;;;691.80;1203.20;;;;;;5034258;28;20057;-65
2021/08/29 11:00:13;;;;;;;1.55;1.35;;;691.90;1177.60;;;;;;5034204;28;20069;-65
2021/08/29 11:02:43;;;;;;;2.25;1.50;;;691.70;1177.60;;;;;;5034182;28;20108;-65
2021/08/29 11:05:12;;;;;;;1.60;1.50;;;691.40;1177.60;;;;;;5034393;28;20026;-65
2021/08/29 11:07:42;;;;;;;3.80;1.20;;;666.50;1177.60;;;;;;5033855;28;20045;-65
2021/08/29 11:10:11;;;;;;;4.18;1.60;;;666.40;1203.20;;;;;;5034137;28;20069;-64
2021/08/29 11:12:38;;;;;;;2.92;1.50;;;666.10;1228.80;;;;;;5033738;28;20029;-65
2021/08/29 11:15:07;;;;;;;4.07;1.75;;;666.00;1254.40;;;;;;5015934;28;20092;-65
2021/08/29 11:17:35;;;;;;;8.90;2.28;;;665.70;1305.60;;;;;;5016493;28;20435;-74
2021/08/29 11:20:04;;;;;;;7.60;1.67;;;640.90;1305.60;;;;;;5033929;28;20033;-76
2021/08/29 11:22:41;;;;;;;3.17;1.48;;;640.60;1280.00;;;;;;5034162;28;20025;-75
2021/08/29 11:25:21;;;;;;;1.63;1.40;;;640.30;1280.00;;;;;;5033721;28;20467;-75
2021/08/29 11:28:00;;;;;;;1.58;1.48;;;640.10;1280.00;;;;;;5033731;28;20057;-75
2021/08/29 11:30:46;;;;;;;1.60;1.40;;;615.30;1356.80;;;;;;5033719;28;20088;-75
2021/08/29 11:33:14;;;;;;;1.60;1.40;;;615.10;1331.20;;;;;;5015564;28;20361;-76
2021/08/29 11:35:51;;;;;;;2.80;1.75;;;614.90;1331.20;;;;;;5033646;28;20055;-76
2021/08/29 11:38:34;;;;;;;1.70;1.25;;;614.80;1356.80;;;;;;5033734;28;20029;-75
2021/08/29 11:41:14;;;;;;;2.85;1.42;;;614.70;1331.20;;;;;;5033972;28;20021;-78
2021/08/29 11:43:44;;;;;;;2.85;1.88;;;614.50;1331.20;;;;;;5033610;28;20057;-76
2021/08/29 11:46:22;;;;;;;2.53;1.77;;;614.40;1331.20;;;;;;5033616;28;20459;-69
2021/08/29 11:49:00;;;;;;;2.20;1.65;;;614.40;1356.80;;;;;;5015749;28;20042;-76
2021/08/29 11:51:49;;;;;;;2.47;1.90;;;589.70;1382.40;;;;;;5033982;28;20467;-77
2021/08/29 11:54:19;;;;;;;2.03;1.50;;;589.60;1433.60;;;;;;5033675;28;20075;-76
2021/08/29 11:56:45;;;;;;;1.90;1.45;;;589.50;1433.60;;;;;;5033925;28;20083;-77
2021/08/29 11:59:12;;;;;;;1.70;1.40;;;589.50;1459.20;;;;;;5033903;28;20038;-67
2021/08/29 12:01:38;;;;;;;1.85;1.50;;;589.70;1433.60;;;;;;5015432;28;20084;-79
2021/08/29 12:04:05;;;;;;;1.98;1.60;;;614.40;1408.00;;;;;;5033459;28;20030;-77
2021/08/29 12:07:08;;;;;;;1.58;1.38;;;614.50;1382.40;;;;;;5033330;28;20064;-79
2021/08/29 12:09:40;;;;;;;1.30;1.20;;;614.70;1356.80;;;;;;5015880;28;20046;-76
2021/08/29 12:12:07;;;;;;;1.80;1.60;;;614.90;1356.80;;;;;;5035689;28;20013;-77
2021/08/29 12:14:33;;;;;;;1.65;1.45;;;614.90;1356.80;;;;;;5019828;28;20037;-79
2021/08/29 12:17:03;;;;;;;1.50;1.40;;;614.90;1331.20;;;;;;5019769;28;20125;-79
2021/08/29 12:19:29;;;;;;;1.73;1.38;;;614.90;1331.20;;;;;;5037492;28;20076;-70